createdAt,value
2019-01-08T00:01:55.864Z,4.13
2019-01-08T00:04:24.627Z,3.90
2019-01-08T00:06:53.401Z,4.07
2019-01-08T00:09:22.259Z,4.23
2019-01-08T00:11:51.003Z,4.00
2019-01-08T00:14:19.823Z,4.07
2019-01-08T00:16:48.659Z,4.07
2019-01-08T00:19:17.423Z,3.70
2019-01-08T00:21:46.206Z,3.70
2019-01-08T00:24:14.963Z,3.73
2019-01-08T00:26:43.741Z,3.83
2019-01-08T00:29:12.482Z,3.60
2019-01-08T00:31:41.341Z,3.60
2019-01-08T00:34:10.161Z,3.73
2019-01-08T00:36:38.908Z,3.40
2019-01-08T00:39:07.910Z,3.50
2019-01-08T00:41:36.675Z,3.30
2019-01-08T00:44:05.431Z,3.40
2019-01-08T00:46:34.253Z,3.50
2019-01-08T00:49:03.019Z,3.23
2019-01-08T00:51:31.759Z,3.33
2019-01-08T00:54:00.491Z,3.47
2019-01-08T00:56:29.247Z,3.40
2019-01-08T00:58:57.982Z,3.00
2019-01-08T01:01:26.735Z,2.97
2019-01-08T01:03:55.631Z,2.90
2019-01-08T01:06:24.473Z,3.20
2019-01-08T01:08:53.231Z,2.60
2019-01-08T01:11:22.055Z,2.80
2019-01-08T01:13:50.810Z,2.97
2019-01-08T01:16:19.575Z,2.47
2019-01-08T01:18:48.365Z,2.73
2019-01-08T01:21:17.146Z,3.20
2019-01-08T01:23:45.933Z,3.00
2019-01-08T01:26:14.699Z,2.63
2019-01-08T01:28:43.529Z,2.60
2019-01-08T01:31:12.289Z,2.80
2019-01-08T01:33:41.051Z,2.80
2019-01-08T01:36:09.823Z,3.07
2019-01-08T01:38:38.568Z,2.53
2019-01-08T01:41:07.334Z,2.60
2019-01-08T01:43:36.075Z,2.40
2019-01-08T01:46:04.815Z,2.40
2019-01-08T01:48:33.571Z,2.67
2019-01-08T01:51:02.308Z,2.70
2019-01-08T01:53:31.062Z,2.47
2019-01-08T01:55:59.791Z,2.33
2019-01-08T01:58:28.585Z,2.47
2019-01-08T02:00:57.355Z,2.07
2019-01-08T02:03:26.107Z,2.00
2019-01-08T02:05:54.853Z,2.30
2019-01-08T02:08:23.608Z,2.10
2019-01-08T02:10:52.432Z,2.30
2019-01-08T02:13:21.175Z,2.13
2019-01-08T02:15:49.917Z,2.03
2019-01-08T02:18:18.689Z,2.37
2019-01-08T02:20:47.459Z,2.17
2019-01-08T02:23:16.227Z,2.00
2019-01-08T02:25:44.985Z,2.20
2019-01-08T02:28:13.879Z,2.00
2019-01-08T02:30:42.621Z,2.00
2019-01-08T02:33:11.359Z,2.10
2019-01-08T02:35:40.127Z,2.03
2019-01-08T02:38:08.863Z,1.70
2019-01-08T02:40:37.619Z,2.00
2019-01-08T02:43:06.368Z,1.73
2019-01-08T02:45:35.219Z,1.70
2019-01-08T02:48:03.971Z,1.93
2019-01-08T02:50:32.747Z,1.90
2019-01-08T02:53:01.501Z,1.87
2019-01-08T02:55:30.303Z,1.70
2019-01-08T02:57:59.069Z,1.70
2019-01-08T03:00:27.824Z,1.70
2019-01-08T03:02:56.596Z,1.67
2019-01-08T03:05:25.328Z,1.70
2019-01-08T03:07:54.089Z,1.60
2019-01-08T03:10:22.906Z,1.90
2019-01-08T03:12:51.660Z,1.70
2019-01-08T03:15:20.495Z,1.77
2019-01-08T03:17:49.264Z,1.60
2019-01-08T03:20:18.096Z,1.63
2019-01-08T03:22:46.940Z,1.60
2019-01-08T03:25:15.682Z,1.80
2019-01-08T03:27:44.462Z,1.47
2019-01-08T03:30:13.218Z,1.40
2019-01-08T03:32:41.965Z,1.40
2019-01-08T03:35:10.735Z,1.63
2019-01-08T03:37:39.502Z,1.40
2019-01-08T03:40:08.251Z,1.43
2019-01-08T03:42:37.081Z,1.33
2019-01-08T03:45:05.954Z,1.30
2019-01-08T03:47:34.700Z,1.37
2019-01-08T03:50:03.637Z,1.23
2019-01-08T03:52:32.400Z,1.50
2019-01-08T03:55:01.260Z,1.30
2019-01-08T03:57:30.007Z,1.50
2019-01-08T03:59:58.750Z,1.47
2019-01-08T04:02:27.501Z,1.20
2019-01-08T04:04:56.237Z,1.40
2019-01-08T04:07:25.279Z,1.27
2019-01-08T04:09:54.039Z,1.30
2019-01-08T04:12:22.773Z,1.30
2019-01-08T04:14:51.520Z,1.30
2019-01-08T04:17:20.263Z,1.40
2019-01-08T04:19:49.027Z,1.20
2019-01-08T04:22:17.797Z,1.40
2019-01-08T04:24:46.571Z,1.03
2019-01-08T04:27:15.293Z,1.13
2019-01-08T04:29:50.415Z,1.20
2019-01-08T04:32:14.533Z,1.20
2019-01-08T04:34:43.289Z,1.50
2019-01-08T04:37:12.063Z,1.10
2019-01-08T04:39:40.831Z,1.40
2019-01-08T04:42:09.582Z,1.23
2019-01-08T04:44:38.332Z,1.20
2019-01-08T04:47:07.172Z,1.13
2019-01-08T04:49:35.937Z,1.10
2019-01-08T04:52:04.669Z,1.30
2019-01-08T04:54:33.433Z,1.13
2019-01-08T04:57:02.179Z,1.10
2019-01-08T04:59:30.933Z,1.17
2019-01-08T05:01:59.736Z,1.20
2019-01-08T05:04:28.515Z,1.10
2019-01-08T05:06:57.266Z,3.10
2019-01-08T05:09:26.093Z,1.10
2019-01-08T05:11:54.853Z,0.90
2019-01-08T05:14:23.619Z,1.10
2019-01-08T05:16:52.388Z,1.00
2019-01-08T05:19:21.271Z,0.93
2019-01-08T05:21:50.046Z,0.90
2019-01-08T05:24:18.802Z,1.23
2019-01-08T05:26:47.571Z,1.90
2019-01-08T05:29:16.346Z,1.00
2019-01-08T05:31:45.090Z,0.87
2019-01-08T05:34:13.932Z,1.07
2019-01-08T05:36:42.684Z,1.00
2019-01-08T05:39:11.466Z,1.10
2019-01-08T05:41:40.224Z,2.43
2019-01-08T05:44:09.213Z,1.00
2019-01-08T05:46:38.157Z,1.03
2019-01-08T05:49:06.929Z,0.90
2019-01-08T05:51:35.665Z,1.00
2019-01-08T05:54:04.430Z,1.00
2019-01-08T05:56:33.172Z,1.00
2019-01-08T05:59:01.922Z,1.03
2019-01-08T06:01:30.704Z,1.00
2019-01-08T06:03:59.463Z,1.10
2019-01-08T06:06:28.246Z,0.87
2019-01-08T06:08:57.147Z,1.00
2019-01-08T06:11:25.900Z,0.80
2019-01-08T06:13:54.716Z,0.73
2019-01-08T06:16:23.498Z,1.43
2019-01-08T06:18:52.407Z,0.90
2019-01-08T06:21:21.189Z,1.07
2019-01-08T06:23:49.942Z,11.57
2019-01-08T06:26:18.975Z,1.00
2019-01-08T06:28:47.746Z,2.67
2019-01-08T06:31:16.502Z,3.17
2019-01-08T06:33:45.266Z,1.40
2019-01-08T06:36:14.010Z,2.00
2019-01-08T06:38:43.024Z,1.60
2019-01-08T06:41:11.756Z,1.40
2019-01-08T06:43:40.537Z,1.20
2019-01-08T06:46:09.290Z,1.20
2019-01-08T06:48:38.133Z,1.60
2019-01-08T06:51:06.916Z,1.10
2019-01-08T06:53:35.676Z,1.10
2019-01-08T06:56:04.456Z,1.40
2019-01-08T06:58:33.263Z,1.03
2019-01-08T07:01:02.014Z,1.30
2019-01-08T07:03:30.754Z,1.37
2019-01-08T07:05:59.550Z,1.10
2019-01-08T07:08:29.578Z,1.20
2019-01-08T07:10:58.451Z,1.10
2019-01-08T07:13:27.302Z,1.07
2019-01-08T07:15:56.148Z,1.13
2019-01-08T07:18:24.876Z,1.30
2019-01-08T07:20:53.633Z,1.77
2019-01-08T07:23:22.378Z,1.10
2019-01-08T07:25:51.145Z,1.10
2019-01-08T07:28:19.959Z,1.00
2019-01-08T07:30:48.725Z,1.00
2019-01-08T07:33:17.484Z,1.00
2019-01-08T07:35:46.250Z,2.03
2019-01-08T07:38:15.161Z,1.13
2019-01-08T07:40:44.060Z,1.00
2019-01-08T07:43:12.794Z,1.20
2019-01-08T07:45:41.557Z,1.07
2019-01-08T07:48:10.291Z,1.00
2019-01-08T07:50:39.040Z,1.13
2019-01-08T07:53:07.796Z,1.43
2019-01-08T07:55:36.546Z,1.20
2019-01-08T07:58:05.307Z,1.10
2019-01-08T08:00:34.052Z,1.20
2019-01-08T08:03:02.788Z,1.00
2019-01-08T08:05:31.547Z,1.03
2019-01-08T08:08:00.305Z,0.80
2019-01-08T08:10:29.083Z,1.03
2019-01-08T08:12:57.911Z,1.00
2019-01-08T08:15:26.676Z,1.10
2019-01-08T08:17:55.431Z,1.00
2019-01-08T08:20:24.166Z,1.17
2019-01-08T08:22:52.935Z,1.50
2019-01-08T08:25:21.680Z,1.10
2019-01-08T08:27:50.436Z,0.83
2019-01-08T08:30:19.158Z,0.90
2019-01-08T08:32:47.931Z,0.90
2019-01-08T08:35:16.687Z,0.83
2019-01-08T08:37:45.423Z,0.90
2019-01-08T08:40:14.192Z,1.10
2019-01-08T08:42:43.003Z,0.90
2019-01-08T08:45:11.844Z,1.00
2019-01-08T08:47:40.592Z,0.87
2019-01-08T08:50:09.402Z,0.97
2019-01-08T08:52:38.165Z,0.90
2019-01-08T08:55:06.923Z,1.00
2019-01-08T08:57:35.719Z,0.90
2019-01-08T09:00:04.706Z,0.87
2019-01-08T09:02:33.555Z,1.17
2019-01-08T09:05:02.299Z,1.03
2019-01-08T09:07:31.065Z,1.20
2019-01-08T09:09:59.820Z,0.97
2019-01-08T09:12:28.557Z,1.10
2019-01-08T09:14:57.299Z,1.17
2019-01-08T09:17:26.043Z,1.17
2019-01-08T09:19:54.815Z,1.00
2019-01-08T09:22:23.626Z,1.20
2019-01-08T09:24:52.387Z,1.10
2019-01-08T09:27:21.159Z,1.30
2019-01-08T09:29:49.949Z,1.00
2019-01-08T09:32:18.699Z,1.20
2019-01-08T09:34:47.427Z,1.37
2019-01-08T09:37:16.185Z,2.43
2019-01-08T09:39:45.113Z,8.83
2019-01-08T09:42:13.867Z,3.17
2019-01-08T09:44:42.675Z,12.67
2019-01-08T09:47:11.407Z,7.73
2019-01-08T09:49:40.229Z,5.77
2019-01-08T09:52:08.985Z,7.60
2019-01-08T09:54:37.735Z,5.93
2019-01-08T09:57:06.504Z,8.03
2019-01-08T09:59:35.601Z,6.10
2019-01-08T10:02:04.549Z,4.23
2019-01-08T10:04:33.360Z,7.50
2019-01-08T10:07:02.143Z,13.50
2019-01-08T10:09:30.972Z,10.80
2019-01-08T10:11:59.783Z,5.50
2019-01-08T10:14:28.629Z,4.67
2019-01-08T10:16:57.435Z,3.33
2019-01-08T10:19:26.183Z,8.10
2019-01-08T10:21:54.919Z,3.23
2019-01-08T10:24:23.696Z,5.37
2019-01-08T10:26:52.731Z,4.77
2019-01-08T10:29:21.490Z,3.67
2019-01-08T10:31:50.329Z,3.77
2019-01-08T10:34:19.099Z,1.60
2019-01-08T10:36:47.835Z,1.40
2019-01-08T10:39:16.663Z,2.17
2019-01-08T10:41:45.421Z,1.33
2019-01-08T10:44:14.176Z,2.10
2019-01-08T10:46:42.940Z,2.77
2019-01-08T10:49:11.701Z,2.30
2019-01-08T10:51:40.469Z,1.63
2019-01-08T10:54:09.332Z,2.83
2019-01-08T10:56:38.153Z,2.37
2019-01-08T10:59:07.661Z,3.03
2019-01-08T11:01:40.652Z,3.57
2019-01-08T11:04:07.334Z,3.17
2019-01-08T11:06:36.199Z,1.87
2019-01-08T11:09:06.157Z,5.00
2019-01-08T11:11:35.011Z,2.97
2019-01-08T11:14:03.830Z,3.13
2019-01-08T11:16:32.582Z,3.83
2019-01-08T11:19:01.323Z,2.10
2019-01-08T11:21:30.109Z,3.43
2019-01-08T11:23:58.861Z,1.80
2019-01-08T11:26:27.709Z,2.43
2019-01-08T11:28:56.456Z,3.77
2019-01-08T11:31:25.219Z,2.00
2019-01-08T11:33:54.026Z,2.57
2019-01-08T11:36:22.817Z,4.70
2019-01-08T11:38:51.619Z,1.83
2019-01-08T11:41:20.371Z,2.40
2019-01-08T11:43:49.117Z,3.13
2019-01-08T11:46:17.849Z,2.10
2019-01-08T11:48:46.610Z,4.33
2019-01-08T11:51:15.378Z,3.20
2019-01-08T11:53:44.139Z,3.80
2019-01-08T11:56:12.930Z,3.03
2019-01-08T11:58:41.687Z,2.07
2019-01-08T12:01:10.574Z,2.40
2019-01-08T12:03:39.425Z,3.00
2019-01-08T12:06:08.180Z,1.80
2019-01-08T12:08:36.955Z,3.40
2019-01-08T12:11:06.049Z,3.83
2019-01-08T12:13:36.086Z,5.37
2019-01-08T12:16:04.848Z,2.50
2019-01-08T12:18:33.716Z,2.53
2019-01-08T12:21:02.553Z,4.47
2019-01-08T12:23:31.319Z,4.43
2019-01-08T12:26:00.143Z,3.13
2019-01-08T12:28:28.902Z,2.60
2019-01-08T12:30:57.748Z,4.30
2019-01-08T12:33:26.635Z,2.57
2019-01-08T12:35:55.438Z,5.03
2019-01-08T12:38:24.284Z,3.20
2019-01-08T12:40:53.130Z,2.53
2019-01-08T12:43:21.966Z,2.23
2019-01-08T12:45:50.706Z,1.90
2019-01-08T12:48:19.570Z,2.60
2019-01-08T12:50:48.354Z,2.63
2019-01-08T12:53:17.129Z,3.43
2019-01-08T12:55:46.096Z,4.70
2019-01-08T12:58:15.113Z,3.53
2019-01-08T13:00:43.992Z,3.47
2019-01-08T13:03:12.810Z,1.87
2019-01-08T13:05:41.770Z,3.13
2019-01-08T13:08:10.682Z,2.13
2019-01-08T13:10:39.596Z,2.50
2019-01-08T13:13:08.412Z,2.60
2019-01-08T13:15:37.160Z,3.27
2019-01-08T13:18:05.940Z,3.93
2019-01-08T13:20:34.690Z,3.00
2019-01-08T13:23:03.480Z,2.27
2019-01-08T13:25:32.233Z,2.00
2019-01-08T13:28:01.010Z,2.93
2019-01-08T13:30:29.800Z,2.30
2019-01-08T13:32:58.531Z,2.90
2019-01-08T13:35:27.272Z,2.43
2019-01-08T13:37:56.027Z,4.17
2019-01-08T13:40:24.790Z,2.33
2019-01-08T13:42:53.570Z,2.70
2019-01-08T13:45:22.345Z,2.10
2019-01-08T13:47:51.198Z,2.27
2019-01-08T13:50:19.948Z,2.50
2019-01-08T13:52:48.762Z,2.13
2019-01-08T13:55:17.602Z,3.83
2019-01-08T13:57:46.456Z,2.77
2019-01-08T14:00:16.368Z,1.97
2019-01-08T14:02:45.155Z,1.83
2019-01-08T14:05:13.884Z,2.93
2019-01-08T14:07:42.672Z,2.23
2019-01-08T14:10:11.431Z,2.00
2019-01-08T14:12:40.197Z,2.73
2019-01-08T14:15:09.043Z,2.07
2019-01-08T14:17:37.794Z,3.03
2019-01-08T14:20:07.576Z,3.20
2019-01-08T14:22:36.340Z,2.10
2019-01-08T14:25:05.120Z,2.03
2019-01-08T14:27:33.957Z,1.80
2019-01-08T14:30:02.940Z,2.10
2019-01-08T14:32:40.394Z,2.07
2019-01-08T14:35:02.327Z,2.60
2019-01-08T14:37:31.165Z,2.00
2019-01-08T14:39:59.972Z,2.00
2019-01-08T14:42:28.795Z,2.07
2019-01-08T14:44:57.656Z,2.03
2019-01-08T14:47:26.429Z,1.80
2019-01-08T14:49:55.193Z,2.30
2019-01-08T14:52:24.010Z,2.80
2019-01-08T14:54:52.892Z,1.97
2019-01-08T14:57:21.693Z,2.03
2019-01-08T14:59:50.444Z,1.90
2019-01-08T15:02:19.292Z,2.10
2019-01-08T15:04:48.050Z,1.97
2019-01-08T15:07:16.828Z,1.90
2019-01-08T15:09:45.662Z,1.97
2019-01-08T15:12:14.417Z,1.93
2019-01-08T15:14:43.186Z,2.10
2019-01-08T15:17:11.946Z,1.90
2019-01-08T15:19:40.700Z,2.07
2019-01-08T15:22:09.464Z,1.80
2019-01-08T15:24:38.235Z,1.70
2019-01-08T15:27:07.004Z,2.10
2019-01-08T15:29:35.790Z,1.90
2019-01-08T15:32:04.584Z,2.17
2019-01-08T15:34:33.432Z,1.80
2019-01-08T15:37:02.274Z,1.70
2019-01-08T15:39:31.030Z,1.90
2019-01-08T15:41:59.833Z,1.80
2019-01-08T15:44:28.660Z,1.83
2019-01-08T15:46:57.519Z,1.87
2019-01-08T15:49:26.297Z,1.87
2019-01-08T15:51:55.053Z,2.00
2019-01-08T15:54:23.942Z,1.80
2019-01-08T15:56:52.726Z,3.03
2019-01-08T15:59:21.514Z,2.07
2019-01-08T16:01:50.294Z,2.97
2019-01-08T16:04:19.088Z,2.20
2019-01-08T16:06:47.914Z,2.10
2019-01-08T16:09:16.762Z,1.90
2019-01-08T16:11:45.544Z,2.23
2019-01-08T16:14:15.186Z,2.27
2019-01-08T16:16:43.968Z,3.40
2019-01-08T16:19:12.716Z,3.57
2019-01-08T16:21:41.477Z,2.10
2019-01-08T16:24:10.242Z,2.00
2019-01-08T16:26:39.024Z,2.10
2019-01-08T16:29:07.792Z,2.00
2019-01-08T16:31:36.722Z,2.20
2019-01-08T16:34:05.566Z,2.00
2019-01-08T16:36:34.359Z,1.73
2019-01-08T16:39:03.324Z,2.00
2019-01-08T16:41:32.305Z,1.90
2019-01-08T16:44:01.146Z,1.87
2019-01-08T16:46:30.090Z,1.60
2019-01-08T16:48:58.925Z,2.00
2019-01-08T16:51:27.718Z,1.70
2019-01-08T16:53:56.511Z,2.97
2019-01-08T16:56:25.392Z,1.70
2019-01-08T16:58:54.362Z,2.20
2019-01-08T17:01:23.145Z,2.00
2019-01-08T17:03:52.068Z,1.90
2019-01-08T17:06:20.830Z,1.90
2019-01-08T17:08:49.694Z,1.50
2019-01-08T17:11:18.474Z,1.40
2019-01-08T17:13:47.293Z,1.60
2019-01-08T17:16:16.273Z,1.90
2019-01-08T17:18:45.110Z,1.70
2019-01-08T17:21:14.049Z,1.97
2019-01-08T17:23:42.998Z,1.70
2019-01-08T17:26:11.891Z,1.50
2019-01-08T17:28:40.706Z,3.30
2019-01-08T17:31:09.596Z,1.80
2019-01-08T17:33:38.392Z,1.70
2019-01-08T17:36:07.180Z,1.80
2019-01-08T17:38:36.069Z,1.73
2019-01-08T17:41:04.958Z,1.70
2019-01-08T17:43:34.645Z,1.87
2019-01-08T17:46:03.419Z,1.67
2019-01-08T17:48:32.202Z,1.70
2019-01-08T17:51:01.061Z,2.00
2019-01-08T17:53:29.989Z,1.60
2019-01-08T17:55:58.915Z,1.40
2019-01-08T17:58:39.493Z,2.00
2019-01-08T18:01:11.631Z,1.57
2019-01-08T18:03:42.712Z,2.00
2019-01-08T18:06:11.875Z,1.70
2019-01-08T18:08:42.204Z,2.03
2019-01-08T18:11:11.296Z,1.53
2019-01-08T18:13:40.200Z,1.90
2019-01-08T18:16:11.199Z,1.73
2019-01-08T18:18:40.394Z,1.70
2019-01-08T18:21:09.320Z,3.17
2019-01-08T18:23:38.153Z,2.07
2019-01-08T18:26:09.660Z,1.70
2019-01-08T18:28:38.572Z,1.73
2019-01-08T18:31:07.564Z,1.53
2019-01-08T18:33:36.403Z,1.70
2019-01-08T18:36:05.287Z,1.60
2019-01-08T18:38:34.212Z,1.47
2019-01-08T18:41:03.049Z,1.67
2019-01-08T18:43:32.130Z,1.90
2019-01-08T18:46:01.129Z,4.97
2019-01-08T18:48:30.527Z,2.07
2019-01-08T18:50:59.766Z,1.67
2019-01-08T18:53:28.985Z,1.60
2019-01-08T18:55:57.815Z,2.13
2019-01-08T18:58:26.840Z,2.07
2019-01-08T19:00:55.914Z,1.77
2019-01-08T19:03:26.350Z,1.80
2019-01-08T19:05:55.487Z,1.93
2019-01-08T19:08:50.760Z,1.60
2019-01-08T19:11:19.892Z,1.63
2019-01-08T19:13:48.964Z,1.80
2019-01-08T19:16:17.967Z,1.97
2019-01-08T19:18:46.975Z,1.50
2019-01-08T19:21:17.290Z,1.80
2019-01-08T19:23:46.367Z,1.47
2019-01-08T19:26:15.461Z,2.00
2019-01-08T19:28:45.106Z,1.60
2019-01-08T19:31:14.487Z,1.60
2019-01-08T19:33:44.507Z,1.47
2019-01-08T19:36:13.937Z,2.10
2019-01-08T19:38:43.057Z,2.00
2019-01-08T19:41:12.170Z,1.73
2019-01-08T19:43:41.249Z,1.90
2019-01-08T19:46:12.320Z,1.60
2019-01-08T19:48:41.429Z,1.70
2019-01-08T19:51:10.745Z,2.00
2019-01-08T19:53:40.718Z,1.93
2019-01-08T19:56:10.042Z,1.97
2019-01-08T19:58:39.956Z,1.80
2019-01-08T20:01:09.121Z,1.70
2019-01-08T20:03:38.324Z,1.77
2019-01-08T20:06:07.363Z,1.80
2019-01-08T20:08:36.494Z,1.97
2019-01-08T20:11:05.871Z,1.53
2019-01-08T20:13:36.322Z,1.63
2019-01-08T20:16:05.785Z,1.60
2019-01-08T20:18:35.673Z,1.77
2019-01-08T20:21:04.781Z,2.23
2019-01-08T20:23:35.251Z,1.93
2019-01-08T20:26:04.622Z,1.83
2019-01-08T20:28:33.820Z,1.70
2019-01-08T20:31:03.269Z,1.53
2019-01-08T20:33:32.657Z,1.80
2019-01-08T20:36:02.060Z,1.63
2019-01-08T20:38:32.008Z,1.87
2019-01-08T20:41:01.112Z,1.70
2019-01-08T20:43:30.131Z,1.90
2019-01-08T20:46:00.376Z,1.40
2019-01-08T20:48:30.650Z,1.60
2019-01-08T20:51:01.514Z,1.70
2019-01-08T20:53:31.078Z,1.57
2019-01-08T20:56:00.237Z,1.70
2019-01-08T20:58:29.658Z,1.80
2019-01-08T21:00:58.823Z,2.07
2019-01-08T21:03:28.656Z,1.47
2019-01-08T21:05:57.717Z,1.87
2019-01-08T21:08:27.201Z,1.73
2019-01-08T21:10:57.511Z,1.80
2019-01-08T21:13:26.674Z,1.67
2019-01-08T21:15:55.998Z,1.77
2019-01-08T21:18:26.411Z,1.93
2019-01-08T21:20:55.448Z,1.90
2019-01-08T21:23:25.585Z,1.73
2019-01-08T21:25:54.746Z,1.90
2019-01-08T21:28:23.812Z,1.57
2019-01-08T21:30:52.852Z,1.60
2019-01-08T21:33:23.200Z,1.50
2019-01-08T21:35:52.279Z,1.90
2019-01-08T21:38:21.403Z,1.50
2019-01-08T21:40:50.463Z,1.70
2019-01-08T21:43:19.448Z,1.80
2019-01-08T21:45:48.420Z,1.50
2019-01-08T21:48:17.285Z,1.50
2019-01-08T21:50:46.291Z,1.77
2019-01-08T21:53:15.456Z,1.70
2019-01-08T21:55:44.286Z,1.50
2019-01-08T21:58:13.172Z,1.63
2019-01-08T22:00:42.390Z,1.80
2019-01-08T22:03:11.344Z,1.90
2019-01-08T22:05:41.302Z,1.67
2019-01-08T22:08:10.183Z,2.67
2019-01-08T22:10:39.072Z,4.87
2019-01-08T22:13:07.976Z,2.57
2019-01-08T22:15:36.904Z,3.80
2019-01-08T22:18:05.742Z,6.30
2019-01-08T22:20:34.544Z,2.00
2019-01-08T22:23:03.330Z,8.63
2019-01-08T22:25:32.344Z,2.43
2019-01-08T22:28:01.563Z,2.13
2019-01-08T22:30:30.580Z,1.90
2019-01-08T22:32:59.416Z,1.90
2019-01-08T22:35:28.272Z,1.57
2019-01-08T22:37:57.108Z,1.80
2019-01-08T22:40:25.952Z,1.90
2019-01-08T22:42:54.728Z,1.73
2019-01-08T22:45:23.512Z,2.50
2019-01-08T22:47:52.452Z,1.63
2019-01-08T22:50:21.201Z,1.97
2019-01-08T22:52:49.951Z,1.50
2019-01-08T22:55:19.128Z,1.80
2019-01-08T22:57:47.970Z,1.80
2019-01-08T23:00:53.952Z,1.60
2019-01-08T23:03:23.080Z,1.67
2019-01-08T23:05:51.862Z,2.10
2019-01-08T23:08:20.697Z,1.40
2019-01-08T23:10:49.511Z,1.60
2019-01-08T23:13:18.268Z,1.87
2019-01-08T23:15:47.115Z,1.83
2019-01-08T23:18:15.953Z,1.70
2019-01-08T23:20:44.706Z,1.60
2019-01-08T23:23:13.496Z,2.30
2019-01-08T23:25:42.250Z,1.50
2019-01-08T23:28:10.997Z,1.70
2019-01-08T23:30:39.746Z,1.63
2019-01-08T23:33:08.498Z,1.60
2019-01-08T23:35:37.340Z,1.50
2019-01-08T23:38:06.076Z,1.80
2019-01-08T23:40:34.863Z,1.80
2019-01-08T23:43:03.708Z,1.73
2019-01-08T23:45:32.492Z,2.20
2019-01-08T23:48:01.314Z,1.83
2019-01-08T23:50:30.115Z,1.60
2019-01-08T23:53:09.630Z,1.80
2019-01-08T23:55:47.704Z,1.53
2019-01-08T23:58:16.478Z,1.57
